Latest  Newer  Older  Last 2 hours slideshow  Last 24 hours slideshow  Refresh every 5 minutes 
Current image  Latest image  Rain/snow radar  Cloud coverage sat images 

All time is UTC (add 2 hours to UTC in wintertime, 3 hours to UTC in DST for Latvia local time)

2022/06/29 17:20 EVRA 291720Z 08006KT 060V120 CAVOK 24/19 Q1016 NOSIG
2022/06/29 17:20 EVLA 291720Z AUTO 33003KT 300V360 9999 FEW012/// 23/20 Q1016
2022/06/29 17:20 EVVA 291720Z AUTO VRB03KT 9999 FEW039 SCT050 23/21 Q1016
2022/06/29 17:20 EYKA 291720Z 05007KT 010V080 9999 SCT038CB 24/18 Q1016
2022/06/29 17:20 EYPA 291720Z 25003KT 190V330 9999 BKN030 22/19 Q1016
2022/06/29 17:20 EYSA 291720Z 10006KT 9999 FEW044 SCT110 24/19 Q1016 NOSIG
2022/06/29 17:20 EYVI 291720Z VRB02KT 9999 TSRA BKN048CB 22/18 Q1017 TEMPO VRB30KT 1500 TSRA BKN015CB

2022/06/29 17:20 EEKE 291720Z AUTO 13003KT 9999NDV NSC 25/19 Q1016
2022/06/29 17:20 EEPU 291720Z AUTO 07006KT 9999 NCD 26/18 Q1017
2022/06/29 17:20 EETN 291720Z 09005KT 9999 FEW043 26/19 Q1017 NOSIG
2022/06/29 17:20 EETU 291720Z AUTO 19004KT 170V230 9999 NCD 25/19 Q1017
   RIGA AIRPORT     EVRA               56 55N  023 58E   10   X     T          6 LV
   LIEPAJA INTL     EVLA        26406  56 31N  021 06E    4   X                8 LV
   VENTPILS         EVVA               57 21N  021 33E    6   X                8 LV
   KAUNAS           EYKA               54 54N  023 55E   77   X     T          6 LT
   PALANGA INTL     EYPA               55 55N  021 03E   10   X                6 LT
   SIAULIAI INTL    EYSA               55 54N  023 24E  135   X     T          6 LT
   VILNIUS INTL     EYVI        26730  54 38N  025 17E  197   X     T          6 LT
   KARDLA           EEKA        26116  58 59N  022 50E    4   X                8 EE
   KURESSAARE       EEKE               58 14N  022 31E    4   X                8 EE
   PARNU            EEPU               58 25N  024 28E   14   X                8 EE
   TALLINN          EETN        26038  59 24N  024 49E   40   X     T          8 EE
   TARTU            EETU               58 19N  026 41E   67   X                8 EE